Diffa, Niger
Current Conditions -  °F | °C
As of 1:00 PM on Sunday 21 Dec 2014 (Local Time) from FTTJ Reporting Station
Sand / Dust Storm Sand / Dust Storm  
Wind Chill: 88°   Ceiling: Unl
Heat Index: 88°   Visibility: 2.5mi
Dew Point: 50°   Wind: 12mph
Humidity: 27%   Direction: 50°NE
Pressure: 29.91"   Gusts: NA
Location:  13.32°N, 12.62°E
Report Text: FTTJ 211200Z 05010KT 360V060 4000 DU NSC 31/10 Q1013 NOSIG
Loading
Personal Weather Stations






























Interactive Weather Map New forecast layout! Learn more

10-Day Weather Forecast

Advertisements
Track Severe Weather on mobile